sensor_id;sensor_type;location;lat;lon;timestamp;P1;durP1;ratioP1;P2;durP2;ratioP2
4630;SDS011;2328;48.170;11.602;2023-09-07T00:02:14;4.33;;;3.00;;
4630;SDS011;2328;48.170;11.602;2023-09-07T00:04:52;5.17;;;2.73;;
4630;SDS011;2328;48.170;11.602;2023-09-07T00:07:23;4.07;;;2.90;;
4630;SDS011;2328;48.170;11.602;2023-09-07T00:09:51;3.50;;;2.60;;
4630;SDS011;2328;48.170;11.602;2023-09-07T00:12:20;3.73;;;2.77;;
4630;SDS011;2328;48.170;11.602;2023-09-07T00:14:48;3.50;;;2.03;;
4630;SDS011;2328;48.170;11.602;2023-09-07T00:17:17;3.60;;;1.97;;
4630;SDS011;2328;48.170;11.602;2023-09-07T00:19:46;3.03;;;2.53;;
4630;SDS011;2328;48.170;11.602;2023-09-07T00:22:18;5.57;;;3.47;;
4630;SDS011;2328;48.170;11.602;2023-09-07T00:24:47;3.10;;;2.60;;
4630;SDS011;2328;48.170;11.602;2023-09-07T00:27:16;4.00;;;2.70;;
4630;SDS011;2328;48.170;11.602;2023-09-07T00:29:45;4.50;;;3.10;;
4630;SDS011;2328;48.170;11.602;2023-09-07T00:32:14;3.60;;;2.47;;
4630;SDS011;2328;48.170;11.602;2023-09-07T00:34:42;4.50;;;3.67;;
4630;SDS011;2328;48.170;11.602;2023-09-07T00:37:11;7.57;;;3.40;;
4630;SDS011;2328;48.170;11.602;2023-09-07T00:39:41;3.27;;;2.87;;
4630;SDS011;2328;48.170;11.602;2023-09-07T00:42:10;4.37;;;2.90;;
4630;SDS011;2328;48.170;11.602;2023-09-07T00:44:39;3.47;;;3.10;;
4630;SDS011;2328;48.170;11.602;2023-09-07T00:47:08;3.80;;;3.03;;
4630;SDS011;2328;48.170;11.602;2023-09-07T00:49:37;3.50;;;3.10;;
4630;SDS011;2328;48.170;11.602;2023-09-07T00:52:06;2.80;;;2.57;;
4630;SDS011;2328;48.170;11.602;2023-09-07T00:54:36;2.90;;;2.60;;
4630;SDS011;2328;48.170;11.602;2023-09-07T00:57:09;7.27;;;2.97;;
4630;SDS011;2328;48.170;11.602;2023-09-07T00:59:39;5.17;;;3.10;;
4630;SDS011;2328;48.170;11.602;2023-09-07T01:02:08;5.67;;;3.60;;
4630;SDS011;2328;48.170;11.602;2023-09-07T01:04:38;4.00;;;3.30;;
4630;SDS011;2328;48.170;11.602;2023-09-07T01:07:10;6.40;;;3.10;;
4630;SDS011;2328;48.170;11.602;2023-09-07T01:09:41;2.70;;;2.50;;
4630;SDS011;2328;48.170;11.602;2023-09-07T01:12:16;4.63;;;3.10;;
4630;SDS011;2328;48.170;11.602;2023-09-07T01:14:45;3.97;;;3.27;;
4630;SDS011;2328;48.170;11.602;2023-09-07T01:17:13;4.60;;;2.33;;
4630;SDS011;2328;48.170;11.602;2023-09-07T01:19:43;3.43;;;3.07;;
4630;SDS011;2328;48.170;11.602;2023-09-07T01:22:14;4.70;;;2.80;;
4630;SDS011;2328;48.170;11.602;2023-09-07T01:24:42;4.50;;;3.33;;
4630;SDS011;2328;48.170;11.602;2023-09-07T01:27:13;8.43;;;3.77;;
4630;SDS011;2328;48.170;11.602;2023-09-07T01:29:41;4.00;;;2.93;;
4630;SDS011;2328;48.170;11.602;2023-09-07T01:32:10;8.63;;;3.60;;
4630;SDS011;2328;48.170;11.602;2023-09-07T01:34:40;5.20;;;3.30;;
4630;SDS011;2328;48.170;11.602;2023-09-07T01:37:08;3.93;;;2.97;;
4630;SDS011;2328;48.170;11.602;2023-09-07T01:39:39;3.20;;;2.80;;
4630;SDS011;2328;48.170;11.602;2023-09-07T01:42:08;2.80;;;2.50;;
4630;SDS011;2328;48.170;11.602;2023-09-07T01:44:36;3.60;;;2.50;;
4630;SDS011;2328;48.170;11.602;2023-09-07T01:47:05;3.67;;;2.87;;
4630;SDS011;2328;48.170;11.602;2023-09-07T01:49:34;3.90;;;3.10;;
4630;SDS011;2328;48.170;11.602;2023-09-07T01:52:02;3.37;;;3.00;;
4630;SDS011;2328;48.170;11.602;2023-09-07T01:54:31;3.00;;;2.80;;
4630;SDS011;2328;48.170;11.602;2023-09-07T01:57:02;9.80;;;3.83;;
4630;SDS011;2328;48.170;11.602;2023-09-07T01:59:30;3.97;;;3.57;;
4630;SDS011;2328;48.170;11.602;2023-09-07T02:01:59;7.47;;;3.60;;
4630;SDS011;2328;48.170;11.602;2023-09-07T02:04:28;4.70;;;3.20;;
4630;SDS011;2328;48.170;11.602;2023-09-07T02:06:56;3.37;;;2.90;;
4630;SDS011;2328;48.170;11.602;2023-09-07T02:09:25;4.20;;;3.20;;
4630;SDS011;2328;48.170;11.602;2023-09-07T02:11:54;4.10;;;2.93;;
4630;SDS011;2328;48.170;11.602;2023-09-07T02:14:24;6.03;;;3.90;;
4630;SDS011;2328;48.170;11.602;2023-09-07T02:16:53;5.07;;;3.27;;
4630;SDS011;2328;48.170;11.602;2023-09-07T02:19:22;5.43;;;3.60;;
4630;SDS011;2328;48.170;11.602;2023-09-07T02:21:50;3.80;;;3.03;;
4630;SDS011;2328;48.170;11.602;2023-09-07T02:24:19;4.47;;;3.17;;
4630;SDS011;2328;48.170;11.602;2023-09-07T02:26:47;3.53;;;3.10;;
4630;SDS011;2328;48.170;11.602;2023-09-07T02:29:17;6.50;;;3.93;;
4630;SDS011;2328;48.170;11.602;2023-09-07T02:31:47;4.67;;;3.60;;
4630;SDS011;2328;48.170;11.602;2023-09-07T02:34:15;4.60;;;3.43;;
4630;SDS011;2328;48.170;11.602;2023-09-07T02:36:44;3.10;;;2.70;;
4630;SDS011;2328;48.170;11.602;2023-09-07T02:39:13;4.93;;;3.30;;
4630;SDS011;2328;48.170;11.602;2023-09-07T02:41:41;4.83;;;3.40;;
4630;SDS011;2328;48.170;11.602;2023-09-07T02:44:10;6.43;;;4.10;;
4630;SDS011;2328;48.170;11.602;2023-09-07T02:46:39;4.30;;;2.83;;
4630;SDS011;2328;48.170;11.602;2023-09-07T02:49:09;4.20;;;2.60;;
4630;SDS011;2328;48.170;11.602;2023-09-07T02:54:25;4.90;;;4.20;;
4630;SDS011;2328;48.170;11.602;2023-09-07T02:56:54;4.87;;;3.47;;
4630;SDS011;2328;48.170;11.602;2023-09-07T02:59:22;4.50;;;2.80;;
4630;SDS011;2328;48.170;11.602;2023-09-07T03:01:51;4.43;;;3.50;;
4630;SDS011;2328;48.170;11.602;2023-09-07T03:04:21;6.03;;;3.20;;
4630;SDS011;2328;48.170;11.602;2023-09-07T03:06:49;4.33;;;2.97;;
4630;SDS011;2328;48.170;11.602;2023-09-07T03:09:18;3.80;;;3.00;;
4630;SDS011;2328;48.170;11.602;2023-09-07T03:11:46;4.10;;;3.20;;
4630;SDS011;2328;48.170;11.602;2023-09-07T03:14:15;15.07;;;3.87;;
4630;SDS011;2328;48.170;11.602;2023-09-07T03:16:44;5.27;;;3.07;;
4630;SDS011;2328;48.170;11.602;2023-09-07T03:19:15;4.53;;;3.30;;
4630;SDS011;2328;48.170;11.602;2023-09-07T03:21:45;5.77;;;3.00;;
4630;SDS011;2328;48.170;11.602;2023-09-07T03:24:13;4.67;;;3.40;;
4630;SDS011;2328;48.170;11.602;2023-09-07T03:26:42;4.30;;;3.00;;
4630;SDS011;2328;48.170;11.602;2023-09-07T03:29:11;4.37;;;3.13;;
4630;SDS011;2328;48.170;11.602;2023-09-07T03:31:39;4.37;;;3.23;;
4630;SDS011;2328;48.170;11.602;2023-09-07T03:34:08;4.27;;;2.90;;
4630;SDS011;2328;48.170;11.602;2023-09-07T03:36:36;4.60;;;3.60;;
4630;SDS011;2328;48.170;11.602;2023-09-07T03:39:07;4.37;;;3.10;;
4630;SDS011;2328;48.170;11.602;2023-09-07T03:41:36;6.87;;;3.70;;
4630;SDS011;2328;48.170;11.602;2023-09-07T03:44:05;5.80;;;3.23;;
4630;SDS011;2328;48.170;11.602;2023-09-07T03:46:34;4.63;;;3.43;;
4630;SDS011;2328;48.170;11.602;2023-09-07T03:49:02;3.70;;;3.20;;
4630;SDS011;2328;48.170;11.602;2023-09-07T03:51:31;3.83;;;2.60;;
4630;SDS011;2328;48.170;11.602;2023-09-07T03:54:00;3.33;;;2.97;;
4630;SDS011;2328;48.170;11.602;2023-09-07T03:56:30;4.47;;;3.87;;
4630;SDS011;2328;48.170;11.602;2023-09-07T03:58:58;4.57;;;3.33;;
4630;SDS011;2328;48.170;11.602;2023-09-07T04:01:27;5.70;;;3.50;;
4630;SDS011;2328;48.170;11.602;2023-09-07T04:03:56;4.73;;;2.60;;
4630;SDS011;2328;48.170;11.602;2023-09-07T04:06:25;5.37;;;4.03;;
4630;SDS011;2328;48.170;11.602;2023-09-07T04:08:53;4.77;;;3.70;;
4630;SDS011;2328;48.170;11.602;2023-09-07T04:11:22;3.83;;;2.90;;
4630;SDS011;2328;48.170;11.602;2023-09-07T04:13:52;5.27;;;3.23;;
4630;SDS011;2328;48.170;11.602;2023-09-07T04:16:20;4.27;;;3.20;;
4630;SDS011;2328;48.170;11.602;2023-09-07T04:18:51;4.33;;;3.37;;
4630;SDS011;2328;48.170;11.602;2023-09-07T04:21:20;5.40;;;3.40;;
4630;SDS011;2328;48.170;11.602;2023-09-07T04:23:48;4.90;;;3.80;;
4630;SDS011;2328;48.170;11.602;2023-09-07T04:29:06;5.17;;;3.63;;
4630;SDS011;2328;48.170;11.602;2023-09-07T04:31:34;4.60;;;3.97;;
4630;SDS011;2328;48.170;11.602;2023-09-07T04:34:03;6.53;;;3.50;;
4630;SDS011;2328;48.170;11.602;2023-09-07T04:36:31;5.67;;;3.83;;
4630;SDS011;2328;48.170;11.602;2023-09-07T04:39:00;3.83;;;3.17;;
4630;SDS011;2328;48.170;11.602;2023-09-07T04:41:29;7.33;;;4.20;;
4630;SDS011;2328;48.170;11.602;2023-09-07T04:43:58;7.57;;;3.30;;
4630;SDS011;2328;48.170;11.602;2023-09-07T04:46:28;5.07;;;2.73;;
4630;SDS011;2328;48.170;11.602;2023-09-07T04:48:56;4.00;;;3.30;;
4630;SDS011;2328;48.170;11.602;2023-09-07T04:51:25;4.30;;;3.20;;
4630;SDS011;2328;48.170;11.602;2023-09-07T04:53:53;4.57;;;3.77;;
4630;SDS011;2328;48.170;11.602;2023-09-07T04:56:22;4.60;;;3.30;;
4630;SDS011;2328;48.170;11.602;2023-09-07T04:58:52;5.97;;;4.63;;
4630;SDS011;2328;48.170;11.602;2023-09-07T05:01:21;4.13;;;3.43;;
4630;SDS011;2328;48.170;11.602;2023-09-07T05:03:52;5.93;;;3.73;;
4630;SDS011;2328;48.170;11.602;2023-09-07T05:06:21;5.47;;;3.90;;
4630;SDS011;2328;48.170;11.602;2023-09-07T05:08:50;7.83;;;4.03;;
4630;SDS011;2328;48.170;11.602;2023-09-07T05:11:19;6.03;;;4.20;;
4630;SDS011;2328;48.170;11.602;2023-09-07T05:13:48;9.03;;;4.70;;
4630;SDS011;2328;48.170;11.602;2023-09-07T05:16:16;9.47;;;5.20;;
4630;SDS011;2328;48.170;11.602;2023-09-07T05:18:47;8.43;;;5.03;;
4630;SDS011;2328;48.170;11.602;2023-09-07T05:21:17;6.43;;;4.57;;
4630;SDS011;2328;48.170;11.602;2023-09-07T05:23:46;4.67;;;3.93;;
4630;SDS011;2328;48.170;11.602;2023-09-07T05:26:20;8.33;;;4.10;;
4630;SDS011;2328;48.170;11.602;2023-09-07T05:28:48;5.70;;;3.40;;
4630;SDS011;2328;48.170;11.602;2023-09-07T05:31:17;7.17;;;4.10;;
4630;SDS011;2328;48.170;11.602;2023-09-07T05:33:46;9.80;;;4.80;;
4630;SDS011;2328;48.170;11.602;2023-09-07T05:36:15;5.50;;;3.70;;
4630;SDS011;2328;48.170;11.602;2023-09-07T05:38:45;5.60;;;3.80;;
4630;SDS011;2328;48.170;11.602;2023-09-07T05:41:14;5.20;;;3.70;;
4630;SDS011;2328;48.170;11.602;2023-09-07T05:43:43;7.07;;;4.00;;
4630;SDS011;2328;48.170;11.602;2023-09-07T05:46:12;5.17;;;3.90;;
4630;SDS011;2328;48.170;11.602;2023-09-07T05:48:41;9.30;;;4.97;;
4630;SDS011;2328;48.170;11.602;2023-09-07T05:51:09;9.47;;;4.60;;
4630;SDS011;2328;48.170;11.602;2023-09-07T05:53:39;6.53;;;4.00;;
4630;SDS011;2328;48.170;11.602;2023-09-07T05:56:09;5.40;;;4.07;;
4630;SDS011;2328;48.170;11.602;2023-09-07T05:58:38;6.63;;;4.07;;
4630;SDS011;2328;48.170;11.602;2023-09-07T06:01:06;6.40;;;4.80;;
4630;SDS011;2328;48.170;11.602;2023-09-07T06:03:35;5.80;;;4.37;;
4630;SDS011;2328;48.170;11.602;2023-09-07T06:06:06;7.23;;;4.87;;
4630;SDS011;2328;48.170;11.602;2023-09-07T06:08:35;4.00;;;3.60;;
4630;SDS011;2328;48.170;11.602;2023-09-07T06:11:03;5.67;;;4.13;;
4630;SDS011;2328;48.170;11.602;2023-09-07T06:13:34;4.00;;;3.60;;
4630;SDS011;2328;48.170;11.602;2023-09-07T06:16:03;5.67;;;3.80;;
4630;SDS011;2328;48.170;11.602;2023-09-07T06:18:32;5.17;;;3.40;;
4630;SDS011;2328;48.170;11.602;2023-09-07T06:23:53;5.37;;;3.83;;
4630;SDS011;2328;48.170;11.602;2023-09-07T06:26:22;4.77;;;3.30;;
4630;SDS011;2328;48.170;11.602;2023-09-07T06:28:53;8.07;;;3.57;;
4630;SDS011;2328;48.170;11.602;2023-09-07T06:31:22;4.50;;;3.23;;
4630;SDS011;2328;48.170;11.602;2023-09-07T06:33:51;5.23;;;2.90;;
4630;SDS011;2328;48.170;11.602;2023-09-07T06:36:30;3.67;;;2.87;;
4630;SDS011;2328;48.170;11.602;2023-09-07T06:39:19;4.93;;;3.33;;
4630;SDS011;2328;48.170;11.602;2023-09-07T06:41:48;5.33;;;3.63;;
4630;SDS011;2328;48.170;11.602;2023-09-07T06:44:18;4.83;;;3.33;;
4630;SDS011;2328;48.170;11.602;2023-09-07T06:46:47;4.87;;;3.50;;
4630;SDS011;2328;48.170;11.602;2023-09-07T06:49:16;4.63;;;3.20;;
4630;SDS011;2328;48.170;11.602;2023-09-07T06:51:48;5.37;;;3.10;;
4630;SDS011;2328;48.170;11.602;2023-09-07T06:54:16;6.70;;;3.83;;
4630;SDS011;2328;48.170;11.602;2023-09-07T06:56:45;5.10;;;4.03;;
4630;SDS011;2328;48.170;11.602;2023-09-07T06:59:14;7.93;;;3.63;;
4630;SDS011;2328;48.170;11.602;2023-09-07T07:01:46;3.20;;;2.90;;
4630;SDS011;2328;48.170;11.602;2023-09-07T07:04:15;8.47;;;4.33;;
4630;SDS011;2328;48.170;11.602;2023-09-07T07:06:44;3.27;;;2.97;;
4630;SDS011;2328;48.170;11.602;2023-09-07T07:09:13;4.33;;;3.93;;
4630;SDS011;2328;48.170;11.602;2023-09-07T07:11:42;7.33;;;3.87;;
4630;SDS011;2328;48.170;11.602;2023-09-07T07:14:11;3.40;;;3.10;;
4630;SDS011;2328;48.170;11.602;2023-09-07T07:16:39;5.80;;;4.43;;
4630;SDS011;2328;48.170;11.602;2023-09-07T07:19:10;4.60;;;3.60;;
4630;SDS011;2328;48.170;11.602;2023-09-07T07:21:38;6.80;;;4.20;;
4630;SDS011;2328;48.170;11.602;2023-09-07T07:24:08;6.80;;;4.00;;
4630;SDS011;2328;48.170;11.602;2023-09-07T07:26:37;3.83;;;3.43;;
4630;SDS011;2328;48.170;11.602;2023-09-07T07:29:06;5.80;;;3.97;;
4630;SDS011;2328;48.170;11.602;2023-09-07T07:31:35;4.87;;;3.70;;
4630;SDS011;2328;48.170;11.602;2023-09-07T07:34:04;6.27;;;4.47;;
4630;SDS011;2328;48.170;11.602;2023-09-07T07:36:35;5.27;;;4.10;;
4630;SDS011;2328;48.170;11.602;2023-09-07T07:39:03;5.73;;;4.13;;
4630;SDS011;2328;48.170;11.602;2023-09-07T07:41:33;5.57;;;3.93;;
4630;SDS011;2328;48.170;11.602;2023-09-07T07:44:02;4.73;;;3.63;;
4630;SDS011;2328;48.170;11.602;2023-09-07T07:46:31;5.67;;;3.80;;
4630;SDS011;2328;48.170;11.602;2023-09-07T07:48:59;7.10;;;4.23;;
4630;SDS011;2328;48.170;11.602;2023-09-07T07:51:28;5.07;;;4.37;;
4630;SDS011;2328;48.170;11.602;2023-09-07T07:53:58;5.40;;;3.83;;
4630;SDS011;2328;48.170;11.602;2023-09-07T07:56:27;4.60;;;3.57;;
4630;SDS011;2328;48.170;11.602;2023-09-07T07:58:59;4.60;;;3.73;;
4630;SDS011;2328;48.170;11.602;2023-09-07T08:01:28;4.77;;;4.27;;
4630;SDS011;2328;48.170;11.602;2023-09-07T08:03:59;4.60;;;3.13;;
4630;SDS011;2328;48.170;11.602;2023-09-07T08:06:30;5.60;;;4.23;;
4630;SDS011;2328;48.170;11.602;2023-09-07T08:09:00;3.60;;;3.30;;
4630;SDS011;2328;48.170;11.602;2023-09-07T08:11:29;4.57;;;3.60;;
4630;SDS011;2328;48.170;11.602;2023-09-07T08:14:00;4.17;;;3.57;;
4630;SDS011;2328;48.170;11.602;2023-09-07T08:16:29;3.50;;;3.20;;
4630;SDS011;2328;48.170;11.602;2023-09-07T08:18:57;4.17;;;3.40;;
4630;SDS011;2328;48.170;11.602;2023-09-07T08:21:26;4.70;;;4.20;;
4630;SDS011;2328;48.170;11.602;2023-09-07T08:23:55;4.37;;;3.50;;
4630;SDS011;2328;48.170;11.602;2023-09-07T08:26:25;8.20;;;4.33;;
4630;SDS011;2328;48.170;11.602;2023-09-07T08:28:53;5.63;;;3.80;;
4630;SDS011;2328;48.170;11.602;2023-09-07T08:31:22;4.40;;;3.47;;
4630;SDS011;2328;48.170;11.602;2023-09-07T08:33:50;7.53;;;4.33;;
4630;SDS011;2328;48.170;11.602;2023-09-07T08:36:21;4.60;;;4.20;;
4630;SDS011;2328;48.170;11.602;2023-09-07T08:38:50;4.00;;;3.50;;
4630;SDS011;2328;48.170;11.602;2023-09-07T08:41:20;4.20;;;3.80;;
4630;SDS011;2328;48.170;11.602;2023-09-07T08:43:50;7.70;;;4.03;;
4630;SDS011;2328;48.170;11.602;2023-09-07T08:46:21;4.03;;;3.73;;
4630;SDS011;2328;48.170;11.602;2023-09-07T08:48:51;3.87;;;3.43;;
4630;SDS011;2328;48.170;11.602;2023-09-07T08:51:23;4.60;;;4.03;;
4630;SDS011;2328;48.170;11.602;2023-09-07T08:53:54;5.33;;;2.83;;
4630;SDS011;2328;48.170;11.602;2023-09-07T08:56:23;12.53;;;3.50;;
4630;SDS011;2328;48.170;11.602;2023-09-07T08:58:53;6.57;;;3.83;;
4630;SDS011;2328;48.170;11.602;2023-09-07T09:01:22;4.40;;;3.80;;
4630;SDS011;2328;48.170;11.602;2023-09-07T09:03:51;2.93;;;2.70;;
4630;SDS011;2328;48.170;11.602;2023-09-07T09:06:20;4.23;;;3.83;;
4630;SDS011;2328;48.170;11.602;2023-09-07T09:08:50;3.97;;;3.33;;
4630;SDS011;2328;48.170;11.602;2023-09-07T09:11:19;3.90;;;3.40;;
4630;SDS011;2328;48.170;11.602;2023-09-07T09:13:47;4.20;;;3.73;;
4630;SDS011;2328;48.170;11.602;2023-09-07T09:16:17;4.80;;;4.13;;
4630;SDS011;2328;48.170;11.602;2023-09-07T09:18:49;3.20;;;2.77;;
4630;SDS011;2328;48.170;11.602;2023-09-07T09:21:19;3.17;;;2.90;;
4630;SDS011;2328;48.170;11.602;2023-09-07T09:23:48;3.87;;;3.40;;
4630;SDS011;2328;48.170;11.602;2023-09-07T09:26:17;4.47;;;3.87;;
4630;SDS011;2328;48.170;11.602;2023-09-07T09:28:46;5.10;;;3.13;;
4630;SDS011;2328;48.170;11.602;2023-09-07T09:31:18;3.73;;;3.10;;
4630;SDS011;2328;48.170;11.602;2023-09-07T09:33:48;5.40;;;4.07;;
4630;SDS011;2328;48.170;11.602;2023-09-07T09:36:18;6.20;;;4.80;;
4630;SDS011;2328;48.170;11.602;2023-09-07T09:38:47;6.17;;;3.37;;
4630;SDS011;2328;48.170;11.602;2023-09-07T09:41:16;5.60;;;3.60;;
4630;SDS011;2328;48.170;11.602;2023-09-07T09:43:50;2.90;;;2.60;;
4630;SDS011;2328;48.170;11.602;2023-09-07T09:46:20;3.80;;;3.50;;
4630;SDS011;2328;48.170;11.602;2023-09-07T09:48:50;5.00;;;4.23;;
4630;SDS011;2328;48.170;11.602;2023-09-07T09:51:18;3.77;;;3.37;;
4630;SDS011;2328;48.170;11.602;2023-09-07T09:53:47;4.40;;;3.83;;
4630;SDS011;2328;48.170;11.602;2023-09-07T09:56:16;7.63;;;3.97;;
4630;SDS011;2328;48.170;11.602;2023-09-07T09:58:47;5.23;;;4.00;;
4630;SDS011;2328;48.170;11.602;2023-09-07T10:01:15;4.13;;;3.70;;
4630;SDS011;2328;48.170;11.602;2023-09-07T10:03:47;4.83;;;3.33;;
4630;SDS011;2328;48.170;11.602;2023-09-07T10:06:19;3.60;;;3.27;;
4630;SDS011;2328;48.170;11.602;2023-09-07T10:08:58;4.07;;;3.30;;
4630;SDS011;2328;48.170;11.602;2023-09-07T10:11:27;6.30;;;4.47;;
4630;SDS011;2328;48.170;11.602;2023-09-07T10:13:58;4.20;;;3.80;;
4630;SDS011;2328;48.170;11.602;2023-09-07T10:16:26;6.70;;;3.40;;
4630;SDS011;2328;48.170;11.602;2023-09-07T10:18:56;3.20;;;2.90;;
4630;SDS011;2328;48.170;11.602;2023-09-07T10:21:25;4.13;;;3.00;;
4630;SDS011;2328;48.170;11.602;2023-09-07T10:23:53;6.93;;;3.80;;
4630;SDS011;2328;48.170;11.602;2023-09-07T10:26:22;16.30;;;4.10;;
4630;SDS011;2328;48.170;11.602;2023-09-07T10:28:58;4.17;;;3.77;;
4630;SDS011;2328;48.170;11.602;2023-09-07T10:31:29;3.40;;;3.07;;
4630;SDS011;2328;48.170;11.602;2023-09-07T10:34:19;5.23;;;3.53;;
4630;SDS011;2328;48.170;11.602;2023-09-07T10:36:55;3.73;;;3.27;;
4630;SDS011;2328;48.170;11.602;2023-09-07T10:39:24;3.87;;;3.53;;
4630;SDS011;2328;48.170;11.602;2023-09-07T10:41:57;5.80;;;4.00;;
4630;SDS011;2328;48.170;11.602;2023-09-07T10:44:25;5.13;;;3.33;;
4630;SDS011;2328;48.170;11.602;2023-09-07T10:46:54;4.80;;;3.77;;
4630;SDS011;2328;48.170;11.602;2023-09-07T10:49:24;5.90;;;3.17;;
4630;SDS011;2328;48.170;11.602;2023-09-07T10:51:53;4.27;;;3.57;;
4630;SDS011;2328;48.170;11.602;2023-09-07T10:54:22;3.17;;;2.97;;
4630;SDS011;2328;48.170;11.602;2023-09-07T10:56:51;3.70;;;3.13;;
4630;SDS011;2328;48.170;11.602;2023-09-07T10:59:19;3.47;;;2.83;;
4630;SDS011;2328;48.170;11.602;2023-09-07T11:01:47;3.40;;;3.03;;
4630;SDS011;2328;48.170;11.602;2023-09-07T11:04:17;5.90;;;3.70;;
4630;SDS011;2328;48.170;11.602;2023-09-07T11:06:48;3.83;;;3.50;;
4630;SDS011;2328;48.170;11.602;2023-09-07T11:09:19;4.70;;;3.13;;
4630;SDS011;2328;48.170;11.602;2023-09-07T11:11:48;5.50;;;3.33;;
4630;SDS011;2328;48.170;11.602;2023-09-07T11:14:16;3.50;;;3.20;;
4630;SDS011;2328;48.170;11.602;2023-09-07T11:16:45;4.73;;;3.57;;
4630;SDS011;2328;48.170;11.602;2023-09-07T11:19:13;6.00;;;3.50;;
4630;SDS011;2328;48.170;11.602;2023-09-07T11:21:45;3.67;;;2.90;;
4630;SDS011;2328;48.170;11.602;2023-09-07T11:24:15;5.37;;;3.23;;
4630;SDS011;2328;48.170;11.602;2023-09-07T11:26:44;3.90;;;3.50;;
4630;SDS011;2328;48.170;11.602;2023-09-07T11:29:13;3.87;;;2.93;;
4630;SDS011;2328;48.170;11.602;2023-09-07T11:31:42;7.80;;;2.60;;
4630;SDS011;2328;48.170;11.602;2023-09-07T11:34:11;3.73;;;3.00;;
4630;SDS011;2328;48.170;11.602;2023-09-07T11:39:12;4.63;;;3.57;;
4630;SDS011;2328;48.170;11.602;2023-09-07T11:41:44;9.00;;;3.37;;
4630;SDS011;2328;48.170;11.602;2023-09-07T11:44:13;3.50;;;3.20;;
4630;SDS011;2328;48.170;11.602;2023-09-07T11:46:41;3.57;;;3.13;;
4630;SDS011;2328;48.170;11.602;2023-09-07T11:49:10;3.60;;;3.27;;
4630;SDS011;2328;48.170;11.602;2023-09-07T11:51:40;3.10;;;2.90;;
4630;SDS011;2328;48.170;11.602;2023-09-07T11:54:08;4.07;;;3.53;;
4630;SDS011;2328;48.170;11.602;2023-09-07T11:56:37;3.83;;;3.43;;
4630;SDS011;2328;48.170;11.602;2023-09-07T11:59:10;3.27;;;3.03;;
4630;SDS011;2328;48.170;11.602;2023-09-07T12:01:39;3.87;;;3.57;;
4630;SDS011;2328;48.170;11.602;2023-09-07T12:04:07;3.47;;;3.17;;
4630;SDS011;2328;48.170;11.602;2023-09-07T12:06:36;3.77;;;3.40;;
4630;SDS011;2328;48.170;11.602;2023-09-07T12:09:05;3.60;;;3.30;;
4630;SDS011;2328;48.170;11.602;2023-09-07T12:11:37;3.87;;;3.13;;
4630;SDS011;2328;48.170;11.602;2023-09-07T12:14:08;3.23;;;2.70;;
4630;SDS011;2328;48.170;11.602;2023-09-07T12:16:37;3.60;;;3.13;;
4630;SDS011;2328;48.170;11.602;2023-09-07T12:19:06;3.47;;;2.73;;
4630;SDS011;2328;48.170;11.602;2023-09-07T12:21:35;3.23;;;2.70;;
4630;SDS011;2328;48.170;11.602;2023-09-07T12:24:03;3.33;;;3.03;;
4630;SDS011;2328;48.170;11.602;2023-09-07T12:26:32;3.87;;;3.20;;
4630;SDS011;2328;48.170;11.602;2023-09-07T12:29:01;4.30;;;2.90;;
4630;SDS011;2328;48.170;11.602;2023-09-07T12:31:30;3.47;;;2.40;;
4630;SDS011;2328;48.170;11.602;2023-09-07T12:34:00;3.90;;;3.50;;
4630;SDS011;2328;48.170;11.602;2023-09-07T12:36:29;2.53;;;2.33;;
4630;SDS011;2328;48.170;11.602;2023-09-07T12:38:58;3.30;;;3.00;;
4630;SDS011;2328;48.170;11.602;2023-09-07T12:41:27;3.57;;;3.23;;
4630;SDS011;2328;48.170;11.602;2023-09-07T12:43:57;3.03;;;2.83;;
4630;SDS011;2328;48.170;11.602;2023-09-07T12:46:25;2.70;;;2.50;;
4630;SDS011;2328;48.170;11.602;2023-09-07T12:48:54;3.20;;;2.40;;
4630;SDS011;2328;48.170;11.602;2023-09-07T12:51:24;2.60;;;2.23;;
4630;SDS011;2328;48.170;11.602;2023-09-07T12:53:52;3.20;;;2.80;;
4630;SDS011;2328;48.170;11.602;2023-09-07T12:56:21;3.07;;;2.77;;
4630;SDS011;2328;48.170;11.602;2023-09-07T12:58:50;3.70;;;3.13;;
4630;SDS011;2328;48.170;11.602;2023-09-07T13:01:19;2.70;;;2.50;;
4630;SDS011;2328;48.170;11.602;2023-09-07T13:03:48;2.70;;;2.50;;
4630;SDS011;2328;48.170;11.602;2023-09-07T13:06:16;3.10;;;2.63;;
4630;SDS011;2328;48.170;11.602;2023-09-07T13:08:46;5.10;;;3.10;;
4630;SDS011;2328;48.170;11.602;2023-09-07T13:11:15;3.70;;;3.00;;
4630;SDS011;2328;48.170;11.602;2023-09-07T13:13:44;3.10;;;2.80;;
4630;SDS011;2328;48.170;11.602;2023-09-07T13:16:13;8.00;;;2.60;;
4630;SDS011;2328;48.170;11.602;2023-09-07T13:18:42;2.80;;;2.60;;
4630;SDS011;2328;48.170;11.602;2023-09-07T13:21:11;2.63;;;2.43;;
4630;SDS011;2328;48.170;11.602;2023-09-07T13:23:40;2.47;;;2.20;;
4630;SDS011;2328;48.170;11.602;2023-09-07T13:26:10;2.60;;;2.40;;
4630;SDS011;2328;48.170;11.602;2023-09-07T13:28:39;2.30;;;2.20;;
4630;SDS011;2328;48.170;11.602;2023-09-07T13:31:08;2.27;;;2.10;;
4630;SDS011;2328;48.170;11.602;2023-09-07T13:33:36;2.77;;;1.70;;
4630;SDS011;2328;48.170;11.602;2023-09-07T13:36:05;2.13;;;1.93;;
4630;SDS011;2328;48.170;11.602;2023-09-07T13:38:34;2.43;;;2.23;;
4630;SDS011;2328;48.170;11.602;2023-09-07T13:41:02;2.03;;;1.93;;
4630;SDS011;2328;48.170;11.602;2023-09-07T13:43:32;3.20;;;2.20;;
4630;SDS011;2328;48.170;11.602;2023-09-07T13:46:00;4.73;;;2.33;;
4630;SDS011;2328;48.170;11.602;2023-09-07T13:48:30;3.70;;;2.20;;
4630;SDS011;2328;48.170;11.602;2023-09-07T13:50:59;3.57;;;2.70;;
4630;SDS011;2328;48.170;11.602;2023-09-07T13:53:28;2.30;;;2.10;;
4630;SDS011;2328;48.170;11.602;2023-09-07T13:55:57;2.17;;;2.07;;
4630;SDS011;2328;48.170;11.602;2023-09-07T13:58:26;3.00;;;2.50;;
4630;SDS011;2328;48.170;11.602;2023-09-07T14:00:56;2.40;;;2.20;;
4630;SDS011;2328;48.170;11.602;2023-09-07T14:03:27;3.37;;;2.60;;
4630;SDS011;2328;48.170;11.602;2023-09-07T14:05:56;2.27;;;2.07;;
4630;SDS011;2328;48.170;11.602;2023-09-07T14:08:25;2.37;;;2.17;;
4630;SDS011;2328;48.170;11.602;2023-09-07T14:10:55;3.03;;;2.70;;
4630;SDS011;2328;48.170;11.602;2023-09-07T14:13:26;3.00;;;2.37;;
4630;SDS011;2328;48.170;11.602;2023-09-07T14:15:54;2.80;;;2.60;;
4630;SDS011;2328;48.170;11.602;2023-09-07T14:18:24;2.37;;;2.17;;
4630;SDS011;2328;48.170;11.602;2023-09-07T14:20:53;2.80;;;2.00;;
4630;SDS011;2328;48.170;11.602;2023-09-07T14:23:24;3.63;;;2.67;;
4630;SDS011;2328;48.170;11.602;2023-09-07T14:25:53;2.40;;;2.20;;
4630;SDS011;2328;48.170;11.602;2023-09-07T14:28:21;3.03;;;2.70;;
4630;SDS011;2328;48.170;11.602;2023-09-07T14:30:49;2.37;;;2.17;;
4630;SDS011;2328;48.170;11.602;2023-09-07T14:33:20;2.77;;;1.73;;
4630;SDS011;2328;48.170;11.602;2023-09-07T14:35:50;2.40;;;2.30;;
4630;SDS011;2328;48.170;11.602;2023-09-07T14:38:20;2.50;;;2.30;;
4630;SDS011;2328;48.170;11.602;2023-09-07T14:40:49;1.87;;;1.77;;
4630;SDS011;2328;48.170;11.602;2023-09-07T14:43:20;1.90;;;1.80;;
4630;SDS011;2328;48.170;11.602;2023-09-07T14:45:49;2.33;;;2.10;;
4630;SDS011;2328;48.170;11.602;2023-09-07T14:48:17;2.50;;;2.10;;
4630;SDS011;2328;48.170;11.602;2023-09-07T14:50:45;2.50;;;2.30;;
4630;SDS011;2328;48.170;11.602;2023-09-07T14:53:15;2.50;;;2.13;;
4630;SDS011;2328;48.170;11.602;2023-09-07T14:55:44;2.23;;;2.00;;
4630;SDS011;2328;48.170;11.602;2023-09-07T14:58:12;3.03;;;2.40;;
4630;SDS011;2328;48.170;11.602;2023-09-07T15:00:40;2.90;;;2.33;;
4630;SDS011;2328;48.170;11.602;2023-09-07T15:03:08;6.90;;;2.30;;
4630;SDS011;2328;48.170;11.602;2023-09-07T15:05:37;2.27;;;1.90;;
4630;SDS011;2328;48.170;11.602;2023-09-07T15:08:05;3.10;;;2.57;;
4630;SDS011;2328;48.170;11.602;2023-09-07T15:10:35;2.37;;;2.17;;
4630;SDS011;2328;48.170;11.602;2023-09-07T15:13:03;2.33;;;2.00;;
4630;SDS011;2328;48.170;11.602;2023-09-07T15:15:33;2.87;;;2.03;;
4630;SDS011;2328;48.170;11.602;2023-09-07T15:18:03;2.20;;;2.00;;
4630;SDS011;2328;48.170;11.602;2023-09-07T15:20:32;2.83;;;1.93;;
4630;SDS011;2328;48.170;11.602;2023-09-07T15:23:00;2.57;;;2.37;;
4630;SDS011;2328;48.170;11.602;2023-09-07T15:25:29;2.97;;;2.10;;